createdAt,value
2022-08-21T00:01:26.590Z,98279.88
2022-08-21T00:04:39.615Z,98284.03
2022-08-21T00:08:04.721Z,98286.41
2022-08-21T00:11:12.452Z,98276.06
2022-08-21T00:14:24.747Z,98279.06
2022-08-21T00:17:42.572Z,98273.16
2022-08-21T00:20:52.115Z,98272.66
2022-08-21T00:24:00.645Z,98275.50
2022-08-21T00:27:11.041Z,98278.78
2022-08-21T00:30:22.903Z,98269.84
2022-08-21T00:33:40.633Z,98274.28
2022-08-21T00:36:48.478Z,98276.69
2022-08-21T00:39:59.063Z,98276.19
2022-08-21T00:43:09.656Z,98273.63
2022-08-21T00:46:17.409Z,98278.13
2022-08-21T00:49:27.715Z,98269.19
2022-08-21T00:52:37.596Z,98263.28
2022-08-21T00:55:44.980Z,98274.25
2022-08-21T00:58:54.763Z,98261.50
2022-08-21T01:02:03.251Z,98267.19
2022-08-21T01:05:11.855Z,98262.53
2022-08-21T01:08:20.922Z,98256.59
2022-08-21T01:11:27.337Z,98257.53
2022-08-21T01:14:36.410Z,98270.91
2022-08-21T01:17:42.546Z,98261.63
2022-08-21T01:21:02.376Z,98274.69
2022-08-21T01:24:09.748Z,98268.47
2022-08-21T01:27:16.608Z,98267.38
2022-08-21T01:30:26.967Z,98274.03
2022-08-21T01:33:36.152Z,98267.19
2022-08-21T01:36:44.145Z,98269.22
2022-08-21T01:39:54.367Z,98263.63
2022-08-21T01:43:01.077Z,98262.47
2022-08-21T01:46:09.427Z,98252.25
2022-08-21T01:49:16.279Z,98256.25
2022-08-21T01:52:25.198Z,98256.25
2022-08-21T01:55:32.064Z,98258.34
2022-08-21T01:58:39.989Z,98256.63
2022-08-21T02:01:48.406Z,98253.75
2022-08-21T02:04:56.039Z,98243.19
2022-08-21T02:08:05.138Z,98242.09
2022-08-21T02:11:12.941Z,98246.34
2022-08-21T02:14:32.775Z,98245.34
2022-08-21T02:17:44.317Z,98241.84
2022-08-21T02:20:56.513Z,98243.38
2022-08-21T02:24:12.413Z,98242.41
2022-08-21T02:27:28.518Z,98240.75
2022-08-21T02:30:40.944Z,98237.53
2022-08-21T02:33:55.215Z,98240.97
2022-08-21T02:37:02.376Z,98241.63
2022-08-21T02:40:13.597Z,98242.66
2022-08-21T02:43:21.471Z,98239.94
2022-08-21T02:46:30.075Z,98236.81
2022-08-21T02:49:37.369Z,98240.28
2022-08-21T02:52:43.533Z,98245.50
2022-08-21T02:55:54.783Z,98245.50
2022-08-21T02:59:01.477Z,98243.34
2022-08-21T03:02:11.289Z,98245.84
2022-08-21T03:05:31.421Z,98245.97
2022-08-21T03:08:48.515Z,98248.06
2022-08-21T03:12:03.399Z,98245.34
2022-08-21T03:15:13.255Z,98245.16
2022-08-21T03:18:21.774Z,98237.19
2022-08-21T03:21:37.540Z,98235.88
2022-08-21T03:24:49.492Z,98244.47
2022-08-21T03:28:06.363Z,98240.47
2022-08-21T03:31:13.493Z,98241.09
2022-08-21T03:34:26.222Z,98238.38
2022-08-21T03:37:35.481Z,98240.09
2022-08-21T03:40:51.731Z,98251.91
2022-08-21T03:44:01.451Z,98245.06
2022-08-21T03:47:26.522Z,98251.22
2022-08-21T03:50:44.344Z,98250.41
2022-08-21T03:54:02.668Z,98253.91
2022-08-21T03:57:13.999Z,98261.00
2022-08-21T04:00:37.255Z,98260.78
2022-08-21T04:03:57.858Z,98265.00
2022-08-21T04:07:08.542Z,98263.91
2022-08-21T04:10:26.399Z,98266.13
2022-08-21T04:13:44.354Z,98268.69
2022-08-21T04:16:59.493Z,98265.72
2022-08-21T04:20:15.974Z,98274.91
2022-08-21T04:23:30.848Z,98273.03
2022-08-21T04:26:52.061Z,98277.13
2022-08-21T04:30:01.913Z,98279.41
2022-08-21T04:33:23.949Z,98282.31
2022-08-21T04:36:43.223Z,98282.63
2022-08-21T04:40:05.027Z,98289.72
2022-08-21T04:43:21.487Z,98295.00
2022-08-21T04:46:36.408Z,98300.09
2022-08-21T04:49:55.829Z,98296.72
2022-08-21T04:53:26.157Z,98295.00
2022-08-21T05:00:15.431Z,98296.53
2022-08-21T05:03:35.653Z,98300.72
2022-08-21T05:06:56.401Z,98299.63
2022-08-21T05:10:22.742Z,98298.53
2022-08-21T05:13:29.432Z,98301.72
2022-08-21T05:16:46.927Z,98300.34
2022-08-21T05:20:02.229Z,98303.63
2022-08-21T05:23:26.839Z,98314.75
2022-08-21T05:26:38.302Z,98320.25
2022-08-21T05:29:51.487Z,98322.88
2022-08-21T05:33:12.889Z,98326.78
2022-08-21T05:36:23.286Z,98319.53
2022-08-21T05:40:05.165Z,98324.84
2022-08-21T05:43:12.499Z,98329.25
2022-08-21T05:46:29.353Z,98323.91
2022-08-21T05:49:36.412Z,98325.78
2022-08-21T05:52:42.981Z,98324.75
2022-08-21T05:55:52.674Z,98328.69
2022-08-21T05:59:01.813Z,98328.34
2022-08-21T06:02:10.081Z,98327.19
2022-08-21T06:05:16.796Z,98324.09
2022-08-21T06:08:46.108Z,98319.59
2022-08-21T06:11:58.172Z,98325.41
2022-08-21T06:15:06.091Z,98329.78
2022-08-21T06:18:14.023Z,98327.00
2022-08-21T06:21:21.186Z,98324.22
2022-08-21T06:24:27.919Z,98325.22
2022-08-21T06:27:36.306Z,98320.13
2022-08-21T06:30:44.005Z,98323.00
2022-08-21T06:33:53.443Z,98319.34
2022-08-21T06:37:01.478Z,98315.78
2022-08-21T06:40:12.813Z,98319.03
2022-08-21T06:43:37.885Z,98306.44
2022-08-21T06:46:48.278Z,98307.06
2022-08-21T06:49:57.460Z,98302.44
2022-08-21T06:53:07.319Z,98298.22
2022-08-21T06:56:13.653Z,98296.66
2022-08-21T06:59:24.541Z,98290.50
2022-08-21T07:02:30.893Z,98295.00
2022-08-21T07:05:38.206Z,98303.28
2022-08-21T07:08:49.651Z,98296.00
2022-08-21T07:12:02.722Z,98295.38
2022-08-21T07:15:12.152Z,98290.75
2022-08-21T07:18:20.782Z,98287.84
2022-08-21T07:21:30.438Z,98291.03
2022-08-21T07:24:38.281Z,98293.69
2022-08-21T07:27:47.314Z,98287.00
2022-08-21T07:31:00.824Z,98291.66
2022-08-21T07:34:08.164Z,98295.47
2022-08-21T07:37:17.344Z,98287.78
2022-08-21T07:40:23.887Z,98283.97
2022-08-21T07:43:28.337Z,98288.25
2022-08-21T07:46:32.461Z,98284.44
2022-08-21T07:49:35.185Z,98281.13
2022-08-21T07:52:37.885Z,98290.38
2022-08-21T07:55:40.696Z,98273.84
2022-08-21T07:58:43.385Z,98274.06
2022-08-21T08:01:47.831Z,98275.50
2022-08-21T08:04:51.406Z,98276.94
2022-08-21T08:07:54.499Z,98271.63
2022-08-21T08:11:00.069Z,98269.53
2022-08-21T08:14:04.760Z,98269.91
2022-08-21T08:17:08.919Z,98273.25
2022-08-21T08:20:13.503Z,98266.47
2022-08-21T08:23:17.001Z,98260.09
2022-08-21T08:26:19.746Z,98259.50
2022-08-21T08:29:23.204Z,98259.31
2022-08-21T08:32:27.289Z,98259.16
2022-08-21T08:35:30.221Z,98251.09
2022-08-21T08:38:33.824Z,98245.84
2022-08-21T08:41:38.656Z,98239.69
2022-08-21T08:44:42.581Z,98232.50
2022-08-21T08:47:50.274Z,98234.81
2022-08-21T08:50:57.382Z,98239.53
2022-08-21T08:54:04.848Z,98229.47
2022-08-21T08:57:12.014Z,98227.28
2022-08-21T09:00:18.838Z,98228.19
2022-08-21T09:03:24.286Z,98222.34
2022-08-21T09:07:02.025Z,98215.81
2022-08-21T09:10:18.382Z,98226.09
2022-08-21T09:13:26.306Z,98218.56
2022-08-21T09:16:38.081Z,98225.75
2022-08-21T09:19:56.558Z,98225.84
2022-08-21T09:23:10.830Z,98218.06
2022-08-21T09:26:16.308Z,98214.66
2022-08-21T09:29:22.450Z,98206.91
2022-08-21T09:32:37.128Z,98198.25
2022-08-21T09:35:53.913Z,98210.94
2022-08-21T09:38:57.595Z,98210.97
2022-08-21T09:42:02.518Z,98203.50
2022-08-21T09:45:14.753Z,98202.28
2022-08-21T09:48:22.612Z,98190.97
2022-08-21T09:51:33.421Z,98190.66
2022-08-21T09:54:40.625Z,98193.47
2022-08-21T09:57:50.606Z,98192.72
2022-08-21T10:01:00.234Z,98197.44
2022-08-21T10:04:07.103Z,98189.69
2022-08-21T10:07:13.441Z,98199.19
2022-08-21T10:10:20.025Z,98191.28
2022-08-21T10:13:29.673Z,98184.13
2022-08-21T10:16:44.940Z,98178.88
2022-08-21T10:19:57.985Z,98180.41
2022-08-21T10:23:13.017Z,98171.09
2022-08-21T10:26:28.282Z,98168.44
2022-08-21T10:29:45.969Z,98173.19
2022-08-21T10:33:03.736Z,98167.69
2022-08-21T10:36:14.390Z,98172.41
2022-08-21T10:39:36.187Z,98157.47
2022-08-21T10:42:49.124Z,98157.13
2022-08-21T10:46:04.256Z,98157.50
2022-08-21T10:49:19.606Z,98153.63
2022-08-21T10:52:36.615Z,98142.59
2022-08-21T10:55:46.681Z,98159.94
2022-08-21T10:59:02.379Z,98148.44
2022-08-21T11:02:16.661Z,98140.22
2022-08-21T11:05:26.520Z,98142.16
2022-08-21T11:08:34.182Z,98141.66
2022-08-21T11:11:47.234Z,98141.16
2022-08-21T11:15:07.055Z,98138.50
2022-08-21T11:18:20.487Z,98133.44
2022-08-21T11:21:38.056Z,98131.13
2022-08-21T11:24:46.533Z,98126.03
2022-08-21T11:27:54.816Z,98132.34
2022-08-21T11:31:20.006Z,98130.00
2022-08-21T11:34:35.714Z,98126.00
2022-08-21T11:37:52.372Z,98126.78
2022-08-21T11:41:07.574Z,98123.59
2022-08-21T11:44:23.481Z,98120.41
2022-08-21T11:47:35.441Z,98110.91
2022-08-21T11:50:41.332Z,98108.53
2022-08-21T11:53:54.250Z,98109.31
2022-08-21T11:57:03.366Z,98108.19
2022-08-21T12:00:18.583Z,98116.53
2022-08-21T12:03:29.442Z,98119.31
2022-08-21T12:06:34.705Z,98117.34
2022-08-21T12:10:06.707Z,98112.22
2022-08-21T12:13:57.238Z,98110.66
2022-08-21T12:17:38.825Z,98098.78
2022-08-21T12:20:58.282Z,98096.00
2022-08-21T12:24:17.268Z,98096.34
2022-08-21T12:27:28.370Z,98086.28
2022-08-21T12:30:38.599Z,98091.94
2022-08-21T12:33:43.445Z,98082.09
2022-08-21T12:36:51.853Z,98073.72
2022-08-21T12:39:57.371Z,98077.47
2022-08-21T12:43:02.961Z,98064.88
2022-08-21T12:46:06.840Z,98068.44
2022-08-21T12:49:17.012Z,98078.31
2022-08-21T12:52:24.053Z,98072.00
2022-08-21T12:55:33.450Z,98060.50
2022-08-21T12:58:36.321Z,98064.41
2022-08-21T13:01:46.457Z,98054.09
2022-08-21T13:04:51.993Z,98055.22
2022-08-21T13:07:54.986Z,98061.16
2022-08-21T13:11:09.165Z,98056.03
2022-08-21T13:14:25.270Z,98058.84
2022-08-21T13:17:34.441Z,98061.56
2022-08-21T13:20:41.505Z,98057.91
2022-08-21T13:23:45.025Z,98059.28
2022-08-21T13:26:50.440Z,98059.69
2022-08-21T13:30:05.137Z,98063.66
2022-08-21T13:33:12.861Z,98056.13
2022-08-21T13:36:22.183Z,98049.75
2022-08-21T13:39:25.606Z,98043.06
2022-08-21T13:42:28.443Z,98042.25
2022-08-21T13:45:34.913Z,98035.63
2022-08-21T13:48:39.301Z,98046.31
2022-08-21T13:51:44.404Z,98032.88
2022-08-21T13:54:55.826Z,98033.91
2022-08-21T13:58:02.677Z,98031.50
2022-08-21T14:01:06.713Z,98031.72
2022-08-21T14:04:24.522Z,98033.28
2022-08-21T14:07:33.213Z,98031.28
2022-08-21T14:10:42.329Z,98032.81
2022-08-21T14:13:48.145Z,98034.00
2022-08-21T14:16:57.362Z,98026.16
2022-08-21T14:20:00.446Z,98017.38
2022-08-21T14:23:05.267Z,98016.59
2022-08-21T14:26:09.116Z,98017.84
2022-08-21T14:29:12.521Z,98015.72
2022-08-21T14:32:21.702Z,98011.75
2022-08-21T14:35:27.335Z,98011.22
2022-08-21T14:38:33.454Z,98009.91
2022-08-21T14:41:37.133Z,98001.41
2022-08-21T14:44:39.841Z,98005.13
2022-08-21T14:47:43.559Z,98007.72
2022-08-21T14:50:46.270Z,98000.28
2022-08-21T14:53:50.410Z,97994.16
2022-08-21T14:56:53.432Z,97996.00
2022-08-21T15:00:01.204Z,97992.03
2022-08-21T15:03:05.098Z,97986.97
2022-08-21T15:06:10.108Z,97982.69
2022-08-21T15:09:14.198Z,97983.75
2022-08-21T15:12:16.951Z,97988.88
2022-08-21T15:15:19.893Z,97983.31
2022-08-21T15:18:23.283Z,97981.78
2022-08-21T15:21:26.011Z,97977.97
2022-08-21T15:24:30.230Z,97981.31
2022-08-21T15:27:33.001Z,97975.44
2022-08-21T15:30:36.849Z,97973.13
2022-08-21T15:33:39.568Z,97968.00
2022-08-21T15:36:42.587Z,97969.56
2022-08-21T15:39:52.289Z,97972.69
2022-08-21T15:43:01.156Z,97968.75
2022-08-21T15:46:04.002Z,97962.56
2022-08-21T15:49:06.805Z,97963.00
2022-08-21T15:52:09.767Z,97966.19
2022-08-21T15:55:14.125Z,97958.34
2022-08-21T15:58:18.049Z,97960.50
2022-08-21T16:01:21.924Z,97963.69
2022-08-21T16:04:27.828Z,97955.91
2022-08-21T16:07:30.680Z,97956.31
2022-08-21T16:10:37.573Z,97954.78
2022-08-21T16:13:43.653Z,97944.91
2022-08-21T16:16:47.029Z,97947.41
2022-08-21T16:19:49.738Z,97944.31
2022-08-21T16:22:53.274Z,97944.72
2022-08-21T16:25:59.611Z,97934.06
2022-08-21T16:29:04.006Z,97936.09
2022-08-21T16:32:07.709Z,97942.53
2022-08-21T16:35:13.490Z,97935.09
2022-08-21T16:38:16.362Z,97932.75
2022-08-21T16:41:21.305Z,97936.78
2022-08-21T16:44:24.410Z,97945.44
2022-08-21T16:47:27.571Z,97936.38
2022-08-21T16:50:30.654Z,97937.56
2022-08-21T16:53:33.497Z,97935.16
2022-08-21T16:56:40.035Z,97938.28
2022-08-21T16:59:43.657Z,97934.34
2022-08-21T17:02:49.214Z,97939.84
2022-08-21T17:05:51.950Z,97936.28
2022-08-21T17:08:54.656Z,97932.34
2022-08-21T17:11:58.773Z,97930.28
2022-08-21T17:15:06.002Z,97931.03
2022-08-21T17:18:12.555Z,97934.16
2022-08-21T17:21:18.527Z,97933.31
2022-08-21T17:24:22.237Z,97937.19
2022-08-21T17:27:28.099Z,97940.72
2022-08-21T17:30:31.205Z,97936.31
2022-08-21T17:33:45.317Z,97935.06
2022-08-21T17:36:48.493Z,97935.75
2022-08-21T17:39:52.632Z,97928.91
2022-08-21T17:42:59.618Z,97936.59
2022-08-21T17:46:02.976Z,97934.81
2022-08-21T17:49:06.154Z,97946.34
2022-08-21T17:52:10.365Z,97952.81
2022-08-21T17:55:17.710Z,97947.47
2022-08-21T17:58:21.816Z,97946.00
2022-08-21T18:01:28.824Z,97943.88
2022-08-21T18:04:32.314Z,97945.53
2022-08-21T18:07:35.065Z,97944.44
2022-08-21T18:14:42.133Z,97960.03
2022-08-21T18:17:47.830Z,97953.03
2022-08-21T18:20:51.168Z,97954.34
2022-08-21T18:23:55.741Z,97954.94
2022-08-21T18:26:58.584Z,97960.94
2022-08-21T18:30:03.082Z,97963.84
2022-08-21T18:33:05.990Z,97970.97
2022-08-21T18:36:08.820Z,97968.44
2022-08-21T18:39:35.394Z,97975.63
2022-08-21T18:42:40.777Z,97974.56
2022-08-21T18:45:47.537Z,97980.16
2022-08-21T18:48:50.261Z,97978.34
2022-08-21T18:51:53.748Z,97972.69
2022-08-21T18:54:56.635Z,97980.72
2022-08-21T18:58:01.317Z,97979.31
2022-08-21T19:01:05.738Z,97989.28
2022-08-21T19:04:21.334Z,97987.44
2022-08-21T19:07:32.790Z,97990.00
2022-08-21T19:10:36.965Z,97999.72
2022-08-21T19:13:40.515Z,97988.16
2022-08-21T19:16:48.061Z,97997.78
2022-08-21T19:19:52.011Z,98001.56
2022-08-21T19:22:56.584Z,97998.72
2022-08-21T19:26:03.020Z,97996.00
2022-08-21T19:29:09.358Z,98002.78
2022-08-21T19:32:14.593Z,97997.78
2022-08-21T19:35:17.997Z,98002.28
2022-08-21T19:38:21.324Z,98006.84
2022-08-21T19:41:26.845Z,98004.72
2022-08-21T19:44:39.629Z,98007.34
2022-08-21T19:47:53.031Z,98016.13
2022-08-21T19:51:01.075Z,98012.16
2022-08-21T19:54:10.933Z,98007.66
2022-08-21T19:57:19.577Z,98009.47
2022-08-21T20:00:27.633Z,98009.38
2022-08-21T20:03:37.311Z,98009.53
2022-08-21T20:06:43.676Z,98018.53
2022-08-21T20:09:54.138Z,98015.81
2022-08-21T20:13:01.303Z,98013.22
2022-08-21T20:16:16.297Z,98008.50
2022-08-21T20:19:41.475Z,98015.31
2022-08-21T20:22:48.590Z,98013.03
2022-08-21T20:26:05.981Z,98017.03
2022-08-21T20:29:31.497Z,98021.22
2022-08-21T20:32:46.593Z,98019.75
2022-08-21T20:36:00.660Z,98014.06
2022-08-21T20:39:09.480Z,98019.63
2022-08-21T20:42:30.689Z,98023.13
2022-08-21T20:45:41.340Z,98023.03
2022-08-21T20:48:50.512Z,98030.06
2022-08-21T20:52:02.104Z,98029.81
2022-08-21T20:55:29.115Z,98024.16
2022-08-21T20:58:56.018Z,98021.03
2022-08-21T21:02:13.610Z,98024.69
2022-08-21T21:05:23.614Z,98020.91
2022-08-21T21:08:36.604Z,98027.50
2022-08-21T21:11:51.364Z,98024.75
2022-08-21T21:15:00.778Z,98027.81
2022-08-21T21:18:14.227Z,98020.66
2022-08-21T21:21:32.487Z,98024.72
2022-08-21T21:24:45.431Z,98026.09
2022-08-21T21:27:56.448Z,98017.66
2022-08-21T21:31:03.995Z,98018.22
2022-08-21T21:37:46.043Z,98024.25
2022-08-21T21:41:09.444Z,98019.03
2022-08-21T21:44:25.747Z,98024.72
2022-08-21T21:47:43.923Z,98020.97
2022-08-21T21:51:00.935Z,98022.16
2022-08-21T21:54:22.823Z,98019.78
2022-08-21T21:57:52.447Z,98019.97
2022-08-21T22:01:09.952Z,98028.44
2022-08-21T22:04:28.556Z,98032.16
2022-08-21T22:07:41.845Z,98027.06
2022-08-21T22:10:54.660Z,98024.00
2022-08-21T22:14:11.476Z,98028.03
2022-08-21T22:17:33.000Z,98027.78
2022-08-21T22:20:46.515Z,98037.06
2022-08-21T22:23:56.436Z,98032.13
2022-08-21T22:27:10.190Z,98027.88
2022-08-21T22:30:51.581Z,98029.19
2022-08-21T22:34:05.257Z,98033.25
2022-08-21T22:37:11.641Z,98042.16
2022-08-21T22:40:23.553Z,98035.31
2022-08-21T22:43:28.988Z,98040.63
2022-08-21T22:46:43.175Z,98043.94
2022-08-21T22:49:50.351Z,98041.41
2022-08-21T22:52:57.373Z,98039.63
2022-08-21T22:56:02.031Z,98034.34
2022-08-21T22:59:07.717Z,98039.78
2022-08-21T23:02:30.947Z,98041.69
2022-08-21T23:05:35.798Z,98041.19
2022-08-21T23:08:39.774Z,98039.56
2022-08-21T23:11:44.805Z,98034.13
2022-08-21T23:14:55.181Z,98032.84
2022-08-21T23:18:13.463Z,98026.81
2022-08-21T23:21:22.885Z,98025.06
2022-08-21T23:24:49.765Z,98024.44
2022-08-21T23:28:04.231Z,98020.19
2022-08-21T23:31:17.488Z,98019.25
2022-08-21T23:34:28.784Z,98028.53
2022-08-21T23:37:51.421Z,98030.13
2022-08-21T23:40:59.773Z,98029.97
2022-08-21T23:44:16.524Z,98032.69
2022-08-21T23:47:36.092Z,98030.97
2022-08-21T23:50:49.681Z,98037.19
2022-08-21T23:54:04.384Z,98033.22
2022-08-21T23:57:19.730Z,98033.22
